createdAt,value
2023-03-05T00:00:30.756Z,99480.00
2023-03-05T00:01:30.784Z,99478.00
2023-03-05T00:02:30.937Z,99477.00
2023-03-05T00:03:30.922Z,99477.00
2023-03-05T00:04:30.846Z,99480.00
2023-03-05T00:05:30.821Z,99484.00
2023-03-05T00:06:30.832Z,99483.00
2023-03-05T00:07:30.851Z,99484.00
2023-03-05T00:08:30.890Z,99480.00
2023-03-05T00:09:30.900Z,99487.00
2023-03-05T00:10:30.873Z,99480.00
2023-03-05T00:11:30.895Z,99488.00
2023-03-05T00:12:30.920Z,99486.00
2023-03-05T00:13:30.948Z,99485.00
2023-03-05T00:14:30.976Z,99484.00
2023-03-05T00:15:30.990Z,99486.00
2023-03-05T00:16:31.026Z,99483.00
2023-03-05T00:17:31.041Z,99485.00
2023-03-05T00:18:31.063Z,99483.00
2023-03-05T00:19:31.340Z,99484.00
2023-03-05T00:20:31.093Z,99482.00
2023-03-05T00:21:31.109Z,99479.00
2023-03-05T00:22:31.130Z,99482.00
2023-03-05T00:23:31.141Z,99479.00
2023-03-05T00:24:31.155Z,99479.00
2023-03-05T00:25:31.196Z,99479.00
2023-03-05T00:26:31.164Z,99479.00
2023-03-05T00:27:31.177Z,99475.00
2023-03-05T00:28:31.207Z,99481.00
2023-03-05T00:29:31.816Z,99475.00
2023-03-05T00:30:31.213Z,99475.00
2023-03-05T00:31:31.442Z,99474.00
2023-03-05T00:32:31.307Z,99474.00
2023-03-05T00:33:31.257Z,99473.00
2023-03-05T00:34:31.288Z,99467.00
2023-03-05T00:35:31.312Z,99469.00
2023-03-05T00:36:31.292Z,99470.00
2023-03-05T00:37:31.310Z,99474.00
2023-03-05T00:38:31.323Z,99461.00
2023-03-05T00:39:31.391Z,99466.00
2023-03-05T00:40:31.485Z,99466.00
2023-03-05T00:41:31.426Z,99466.00
2023-03-05T00:42:31.411Z,99463.00
2023-03-05T00:43:31.432Z,99457.00
2023-03-05T00:44:31.452Z,99456.00
2023-03-05T00:45:31.466Z,99457.00
2023-03-05T00:46:31.499Z,99459.00
2023-03-05T00:47:31.494Z,99457.00
2023-03-05T00:48:31.473Z,99458.00
2023-03-05T00:49:31.499Z,99463.00
2023-03-05T00:50:31.508Z,99460.00
2023-03-05T00:51:31.537Z,99455.00
2023-03-05T00:52:31.555Z,99458.00
2023-03-05T00:53:31.587Z,99460.00
2023-03-05T00:54:31.868Z,99457.00
2023-03-05T00:55:31.616Z,99456.00
2023-03-05T00:56:31.646Z,99453.00
2023-03-05T00:57:31.656Z,99456.00
2023-03-05T00:58:31.636Z,99458.00
2023-03-05T00:59:31.660Z,99452.00
2023-03-05T01:00:31.680Z,99455.00
2023-03-05T01:01:31.777Z,99449.00
2023-03-05T01:02:33.787Z,99445.00
2023-03-05T01:03:31.755Z,99451.00
2023-03-05T01:04:31.738Z,99444.00
2023-03-05T01:05:31.786Z,99445.00
2023-03-05T01:06:31.706Z,99447.00
2023-03-05T01:07:31.729Z,99448.00
2023-03-05T01:08:31.758Z,99442.00
2023-03-05T01:09:31.778Z,99442.00
2023-03-05T01:10:31.775Z,99442.00
2023-03-05T01:11:31.794Z,99442.00
2023-03-05T01:12:31.819Z,99443.00
2023-03-05T01:13:31.861Z,99436.00
2023-03-05T01:14:31.849Z,99439.00
2023-03-05T01:15:31.856Z,99437.00
2023-03-05T01:16:31.893Z,99437.00
2023-03-05T01:17:31.886Z,99435.00
2023-03-05T01:18:31.900Z,99439.00
2023-03-05T01:19:31.921Z,99438.00
2023-03-05T01:20:31.942Z,99439.00
2023-03-05T01:21:31.948Z,99437.00
2023-03-05T01:22:31.935Z,99434.00
2023-03-05T01:23:31.950Z,99433.00
2023-03-05T01:24:31.987Z,99436.00
2023-03-05T01:25:31.963Z,99437.00
2023-03-05T01:26:31.977Z,99430.00
2023-03-05T01:27:32.009Z,99432.00
2023-03-05T01:28:32.021Z,99432.00
2023-03-05T01:29:32.075Z,99430.00
2023-03-05T01:30:32.048Z,99428.00
2023-03-05T01:31:32.117Z,99426.00
2023-03-05T01:32:33.630Z,99427.00
2023-03-05T01:33:32.074Z,99426.00
2023-03-05T01:34:32.105Z,99425.00
2023-03-05T01:35:32.139Z,99423.00
2023-03-05T01:36:32.079Z,99424.00
2023-03-05T01:37:32.096Z,99422.00
2023-03-05T01:38:32.119Z,99423.00
2023-03-05T01:39:32.116Z,99427.00
2023-03-05T01:40:32.085Z,99423.00
2023-03-05T01:41:32.111Z,99424.00
2023-03-05T01:42:32.128Z,99422.00
2023-03-05T01:43:32.156Z,99418.00
2023-03-05T01:44:32.183Z,99421.00
2023-03-05T01:45:32.298Z,99423.00
2023-03-05T01:46:32.206Z,99419.00
2023-03-05T01:47:32.177Z,99423.00
2023-03-05T01:48:32.195Z,99425.00
2023-03-05T01:49:32.230Z,99418.00
2023-03-05T01:50:32.255Z,99415.00
2023-03-05T01:51:32.284Z,99416.00
2023-03-05T01:52:32.315Z,99416.00
2023-03-05T01:53:32.327Z,99414.00
2023-03-05T01:54:32.347Z,99413.00
2023-03-05T01:55:32.368Z,99409.00
2023-03-05T01:56:32.384Z,99411.00
2023-03-05T01:57:32.367Z,99405.00
2023-03-05T01:58:32.380Z,99409.00
2023-03-05T01:59:32.411Z,99407.00
2023-03-05T02:00:32.422Z,99405.00
2023-03-05T02:01:32.558Z,99407.00
2023-03-05T02:02:32.449Z,99403.00
2023-03-05T02:03:32.465Z,99400.00
2023-03-05T02:04:32.507Z,99408.00
2023-03-05T02:05:32.491Z,99403.00
2023-03-05T02:06:32.500Z,99405.00
2023-03-05T02:07:32.517Z,99398.00
2023-03-05T02:08:32.525Z,99401.00
2023-03-05T02:09:32.808Z,99398.00
2023-03-05T02:10:32.551Z,99398.00
2023-03-05T02:11:32.572Z,99396.00
2023-03-05T02:12:32.577Z,99392.00
2023-03-05T02:13:32.604Z,99398.00
2023-03-05T02:14:32.622Z,99389.00
2023-03-05T02:15:32.642Z,99384.00
2023-03-05T02:16:32.686Z,99385.00
2023-03-05T02:17:32.680Z,99391.00
2023-03-05T02:18:32.656Z,99389.00
2023-03-05T02:19:32.697Z,99385.00
2023-03-05T02:20:32.667Z,99385.00
2023-03-05T02:21:32.680Z,99385.00
2023-03-05T02:22:32.671Z,99385.00
2023-03-05T02:23:32.691Z,99384.00
2023-03-05T02:24:32.728Z,99383.00
2023-03-05T02:25:32.695Z,99381.00
2023-03-05T02:26:32.937Z,99381.00
2023-03-05T02:27:32.718Z,99378.00
2023-03-05T02:28:32.740Z,99379.00
2023-03-05T02:29:32.771Z,99378.00
2023-03-05T02:30:32.780Z,99375.00
2023-03-05T02:31:32.852Z,99376.00
2023-03-05T02:32:32.960Z,99377.00
2023-03-05T02:33:32.856Z,99370.00
2023-03-05T02:34:32.828Z,99372.00
2023-03-05T02:35:32.833Z,99370.00
2023-03-05T02:36:32.835Z,99373.00
2023-03-05T02:37:32.847Z,99373.00
2023-03-05T02:38:32.873Z,99374.00
2023-03-05T02:39:32.897Z,99370.00
2023-03-05T02:40:32.874Z,99372.00
2023-03-05T02:41:32.899Z,99372.00
2023-03-05T02:42:32.915Z,99371.00
2023-03-05T02:43:32.938Z,99365.00
2023-03-05T02:44:33.217Z,99361.00
2023-03-05T02:45:33.012Z,99365.00
2023-03-05T02:46:32.981Z,99362.00
2023-03-05T02:47:32.997Z,99363.00
2023-03-05T02:48:33.045Z,99364.00
2023-03-05T02:49:33.030Z,99360.00
2023-03-05T02:50:33.018Z,99361.00
2023-03-05T02:51:32.988Z,99361.00
2023-03-05T02:52:33.017Z,99360.00
2023-03-05T02:53:33.000Z,99360.00
2023-03-05T02:54:32.979Z,99357.00
2023-03-05T02:55:33.002Z,99351.00
2023-03-05T02:56:33.017Z,99360.00
2023-03-05T02:57:33.054Z,99363.00
2023-03-05T02:58:33.051Z,99359.00
2023-03-05T02:59:33.095Z,99359.00
2023-03-05T03:00:33.082Z,99360.00
2023-03-05T03:01:33.184Z,99358.00
2023-03-05T03:02:33.147Z,99355.00
2023-03-05T03:03:33.217Z,99358.00
2023-03-05T03:04:33.155Z,99356.00
2023-03-05T03:05:33.196Z,99358.00
2023-03-05T03:06:33.163Z,99353.00
2023-03-05T03:07:33.190Z,99353.00
2023-03-05T03:08:33.212Z,99351.00
2023-03-05T03:09:33.226Z,99352.00
2023-03-05T03:10:33.254Z,99348.00
2023-03-05T03:11:33.264Z,99345.00
2023-03-05T03:12:33.309Z,99350.00
2023-03-05T03:13:33.285Z,99346.00
2023-03-05T03:14:33.307Z,99352.00
2023-03-05T03:15:33.350Z,99351.00
2023-03-05T03:16:33.398Z,99349.00
2023-03-05T03:17:33.351Z,99347.00
2023-03-05T03:18:33.367Z,99347.00
2023-03-05T03:19:33.391Z,99344.00
2023-03-05T03:20:33.415Z,99342.00
2023-03-05T03:21:33.464Z,99342.00
2023-03-05T03:22:33.451Z,99340.00
2023-03-05T03:23:33.418Z,99338.00
2023-03-05T03:24:33.439Z,99340.00
2023-03-05T03:25:33.462Z,99342.00
2023-03-05T03:26:33.477Z,99340.00
2023-03-05T03:27:33.509Z,99333.00
2023-03-05T03:28:33.538Z,99336.00
2023-03-05T03:29:33.550Z,99334.00
2023-03-05T03:30:33.595Z,99336.00
2023-03-05T03:31:33.579Z,99331.00
2023-03-05T03:32:33.678Z,99324.00
2023-03-05T03:33:33.616Z,99328.00
2023-03-05T03:34:33.619Z,99324.00
2023-03-05T03:35:33.679Z,99328.00
2023-03-05T03:36:33.637Z,99327.00
2023-03-05T03:37:33.705Z,99326.00
2023-03-05T03:38:33.687Z,99327.00
2023-03-05T03:39:33.708Z,99325.00
2023-03-05T03:40:33.732Z,99328.00
2023-03-05T03:41:33.745Z,99326.00
2023-03-05T03:42:33.769Z,99327.00
2023-03-05T03:43:33.800Z,99324.00
2023-03-05T03:44:33.821Z,99326.00
2023-03-05T03:45:33.830Z,99325.00
2023-03-05T03:46:33.960Z,99326.00
2023-03-05T03:47:33.860Z,99324.00
2023-03-05T03:48:33.890Z,99323.00
2023-03-05T03:49:33.910Z,99322.00
2023-03-05T03:50:33.928Z,99321.00
2023-03-05T03:51:33.941Z,99319.00
2023-03-05T03:52:33.967Z,99320.00
2023-03-05T03:53:34.027Z,99315.00
2023-03-05T03:54:33.998Z,99318.00
2023-03-05T03:55:34.028Z,99320.00
2023-03-05T03:56:34.041Z,99320.00
2023-03-05T03:57:34.075Z,99321.00
2023-03-05T03:58:34.103Z,99318.00
2023-03-05T03:59:34.122Z,99319.00
2023-03-05T04:00:34.139Z,99317.00
2023-03-05T04:01:34.158Z,99319.00
2023-03-05T04:02:34.227Z,99322.00
2023-03-05T04:03:34.191Z,99318.00
2023-03-05T04:04:34.289Z,99317.00
2023-03-05T04:05:34.226Z,99316.00
2023-03-05T04:06:34.246Z,99314.00
2023-03-05T04:07:34.286Z,99312.00
2023-03-05T04:08:34.268Z,99312.00
2023-03-05T04:09:34.313Z,99313.00
2023-03-05T04:10:34.275Z,99309.00
2023-03-05T04:11:34.301Z,99311.00
2023-03-05T04:12:34.323Z,99307.00
2023-03-05T04:13:34.308Z,99308.00
2023-03-05T04:14:34.325Z,99299.00
2023-03-05T04:15:34.352Z,99303.00
2023-03-05T04:16:34.367Z,99304.00
2023-03-05T04:17:34.387Z,99306.00
2023-03-05T04:18:34.404Z,99305.00
2023-03-05T04:19:34.416Z,99303.00
2023-03-05T04:20:34.437Z,99303.00
2023-03-05T04:21:34.463Z,99298.00
2023-03-05T04:22:34.443Z,99302.00
2023-03-05T04:23:34.455Z,99300.00
2023-03-05T04:24:34.482Z,99300.00
2023-03-05T04:25:34.528Z,99300.00
2023-03-05T04:26:34.502Z,99297.00
2023-03-05T04:27:34.514Z,99297.00
2023-03-05T04:28:34.548Z,99298.00
2023-03-05T04:29:34.534Z,99296.00
2023-03-05T04:30:34.556Z,99297.00
2023-03-05T04:31:34.673Z,99297.00
2023-03-05T04:32:34.716Z,99291.00
2023-03-05T04:33:34.592Z,99298.00
2023-03-05T04:34:34.639Z,99290.00
2023-03-05T04:35:34.674Z,99296.00
2023-03-05T04:36:34.631Z,99294.00
2023-03-05T04:37:34.652Z,99296.00
2023-03-05T04:38:34.678Z,99296.00
2023-03-05T04:39:34.729Z,99297.00
2023-03-05T04:40:34.715Z,99295.00
2023-03-05T04:41:34.751Z,99291.00
2023-03-05T04:42:34.715Z,99289.00
2023-03-05T04:43:34.730Z,99285.00
2023-03-05T04:44:34.775Z,99288.00
2023-03-05T04:45:34.797Z,99287.00
2023-03-05T04:46:34.815Z,99282.00
2023-03-05T04:47:34.811Z,99286.00
2023-03-05T04:48:34.826Z,99287.00
2023-03-05T04:49:34.872Z,99288.00
2023-03-05T04:50:34.839Z,99285.00
2023-03-05T04:51:34.865Z,99285.00
2023-03-05T04:52:34.886Z,99285.00
2023-03-05T04:53:34.916Z,99285.00
2023-03-05T04:54:34.942Z,99284.00
2023-03-05T04:55:34.921Z,99286.00
2023-03-05T04:56:34.952Z,99279.00
2023-03-05T04:57:34.996Z,99288.00
2023-03-05T04:58:34.967Z,99287.00
2023-03-05T04:59:34.988Z,99283.00
2023-03-05T05:00:35.015Z,99286.00
2023-03-05T05:01:35.139Z,99284.00
2023-03-05T05:02:35.100Z,99285.00
2023-03-05T05:03:35.078Z,99282.00
2023-03-05T05:04:35.101Z,99283.00
2023-03-05T05:05:35.155Z,99279.00
2023-03-05T05:06:35.118Z,99282.00
2023-03-05T05:07:35.144Z,99285.00
2023-03-05T05:08:35.128Z,99277.00
2023-03-05T05:09:35.151Z,99280.00
2023-03-05T05:10:35.150Z,99277.00
2023-03-05T05:11:35.166Z,99278.00
2023-03-05T05:12:35.202Z,99276.00
2023-03-05T05:13:35.220Z,99277.00
2023-03-05T05:14:35.159Z,99275.00
2023-03-05T05:15:35.188Z,99275.00
2023-03-05T05:16:35.290Z,99271.00
2023-03-05T05:17:35.244Z,99266.00
2023-03-05T05:18:35.287Z,99267.00
2023-03-05T05:19:35.407Z,99272.00
2023-03-05T05:20:35.314Z,99273.00
2023-03-05T05:21:35.337Z,99272.00
2023-03-05T05:22:35.345Z,99276.00
2023-03-05T05:23:35.371Z,99270.00
2023-03-05T05:24:35.396Z,99275.00
2023-03-05T05:25:35.408Z,99271.00
2023-03-05T05:26:35.442Z,99270.00
2023-03-05T05:27:35.455Z,99272.00
2023-03-05T05:28:35.469Z,99273.00
2023-03-05T05:29:35.532Z,99272.00
2023-03-05T05:30:35.516Z,99269.00
2023-03-05T05:31:35.562Z,99275.00
2023-03-05T05:32:35.529Z,99276.00
2023-03-05T05:33:35.529Z,99274.00
2023-03-05T05:34:35.575Z,99276.00
2023-03-05T05:35:35.637Z,99275.00
2023-03-05T05:36:35.564Z,99279.00
2023-03-05T05:37:35.595Z,99276.00
2023-03-05T05:38:35.605Z,99277.00
2023-03-05T05:39:35.636Z,99275.00
2023-03-05T05:40:35.615Z,99275.00
2023-03-05T05:41:35.857Z,99269.00
2023-03-05T05:42:35.635Z,99270.00
2023-03-05T05:43:35.656Z,99265.00
2023-03-05T05:44:35.688Z,99269.00
2023-03-05T05:45:35.849Z,99272.00
2023-03-05T05:46:35.855Z,99273.00
2023-03-05T05:47:35.740Z,99272.00
2023-03-05T05:48:35.722Z,99272.00
2023-03-05T05:49:35.736Z,99273.00
2023-03-05T05:50:35.755Z,99272.00
2023-03-05T05:51:35.744Z,99271.00
2023-03-05T05:52:35.759Z,99270.00
2023-03-05T05:53:35.771Z,99270.00
2023-03-05T05:54:35.808Z,99271.00
2023-03-05T05:55:35.814Z,99272.00
2023-03-05T05:56:35.836Z,99270.00
2023-03-05T05:57:35.865Z,99271.00
2023-03-05T05:58:35.874Z,99272.00
2023-03-05T05:59:35.899Z,99271.00
2023-03-05T06:00:35.876Z,99271.00
2023-03-05T06:01:35.988Z,99274.00
2023-03-05T06:02:35.969Z,99270.00
2023-03-05T06:03:35.929Z,99271.00
2023-03-05T06:04:36.040Z,99273.00
2023-03-05T06:05:36.018Z,99272.00
2023-03-05T06:06:36.009Z,99272.00
2023-03-05T06:07:35.977Z,99277.00
2023-03-05T06:08:35.990Z,99277.00
2023-03-05T06:09:36.015Z,99275.00
2023-03-05T06:10:36.030Z,99274.00
2023-03-05T06:11:36.055Z,99274.00
2023-03-05T06:12:36.074Z,99276.00
2023-03-05T06:13:36.099Z,99271.00
2023-03-05T06:14:36.146Z,99275.00
2023-03-05T06:15:36.128Z,99272.00
2023-03-05T06:16:36.307Z,99274.00
2023-03-05T06:17:36.204Z,99277.00
2023-03-05T06:18:36.214Z,99275.00
2023-03-05T06:19:36.248Z,99275.00
2023-03-05T06:20:36.233Z,99277.00
2023-03-05T06:21:36.231Z,99275.00
2023-03-05T06:22:36.212Z,99281.00
2023-03-05T06:23:36.239Z,99277.00
2023-03-05T06:24:36.226Z,99276.00
2023-03-05T06:25:36.268Z,99279.00
2023-03-05T06:26:36.265Z,99274.00
2023-03-05T06:27:36.293Z,99273.00
2023-03-05T06:28:36.309Z,99270.00
2023-03-05T06:29:36.333Z,99272.00
2023-03-05T06:30:36.384Z,99274.00
2023-03-05T06:31:37.433Z,99271.00
2023-03-05T06:32:36.419Z,99272.00
2023-03-05T06:33:36.405Z,99279.00
2023-03-05T06:34:36.381Z,99272.00
2023-03-05T06:35:36.424Z,99276.00
2023-03-05T06:36:36.408Z,99274.00
2023-03-05T06:37:36.430Z,99270.00
2023-03-05T06:38:36.447Z,99272.00
2023-03-05T06:39:36.470Z,99271.00
2023-03-05T06:40:36.459Z,99276.00
2023-03-05T06:41:36.460Z,99271.00
2023-03-05T06:42:36.447Z,99271.00
2023-03-05T06:43:36.448Z,99275.00
2023-03-05T06:44:36.479Z,99273.00
2023-03-05T06:45:36.517Z,99272.00
2023-03-05T06:46:36.459Z,99271.00
2023-03-05T06:47:36.489Z,99265.00
2023-03-05T06:48:36.538Z,99269.00
2023-03-05T06:49:36.553Z,99270.00
2023-03-05T06:50:36.529Z,99273.00
2023-03-05T06:51:36.550Z,99273.00
2023-03-05T06:52:36.572Z,99273.00
2023-03-05T06:53:36.596Z,99276.00
2023-03-05T06:54:36.630Z,99275.00
2023-03-05T06:55:36.648Z,99275.00
2023-03-05T06:56:36.700Z,99274.00
2023-03-05T06:57:36.685Z,99275.00
2023-03-05T06:58:36.724Z,99276.00
2023-03-05T06:59:36.716Z,99279.00
2023-03-05T07:00:36.700Z,99277.00
2023-03-05T07:01:36.868Z,99279.00
2023-03-05T07:02:36.720Z,99274.00
2023-03-05T07:03:36.975Z,99277.00
2023-03-05T07:04:36.731Z,99276.00
2023-03-05T07:05:36.739Z,99279.00
2023-03-05T07:06:36.723Z,99274.00
2023-03-05T07:07:36.756Z,99279.00
2023-03-05T07:08:36.764Z,99278.00
2023-03-05T07:09:36.754Z,99276.00
2023-03-05T07:10:36.787Z,99276.00
2023-03-05T07:11:36.820Z,99276.00
2023-03-05T07:12:36.805Z,99276.00
2023-03-05T07:13:36.844Z,99277.00
2023-03-05T07:14:36.860Z,99273.00
2023-03-05T07:15:36.869Z,99271.00
2023-03-05T07:16:36.871Z,99274.00
2023-03-05T07:17:36.907Z,99273.00
2023-03-05T07:18:36.913Z,99273.00
2023-03-05T07:19:36.887Z,99276.00
2023-03-05T07:20:36.911Z,99266.00
2023-03-05T07:21:39.574Z,99272.00
2023-03-05T07:22:36.959Z,99265.00
2023-03-05T07:23:36.989Z,99279.00
2023-03-05T07:24:37.013Z,99277.00
2023-03-05T07:25:37.039Z,99269.00
2023-03-05T07:26:37.067Z,99271.00
2023-03-05T07:27:37.094Z,99273.00
2023-03-05T07:28:37.128Z,99270.00
2023-03-05T07:29:37.107Z,99272.00
2023-03-05T07:30:37.188Z,99272.00
2023-03-05T07:31:37.153Z,99274.00
2023-03-05T07:32:37.175Z,99276.00
2023-03-05T07:33:37.315Z,99276.00
2023-03-05T07:34:37.172Z,99275.00
2023-03-05T07:35:37.192Z,99270.00
2023-03-05T07:36:37.181Z,99270.00
2023-03-05T07:37:37.222Z,99272.00
2023-03-05T07:38:37.227Z,99277.00
2023-03-05T07:39:37.225Z,99273.00
2023-03-05T07:40:37.251Z,99274.00
2023-03-05T07:41:37.286Z,99271.00
2023-03-05T07:42:37.425Z,99278.00
2023-03-05T07:43:37.316Z,99277.00
2023-03-05T07:44:37.341Z,99275.00
2023-03-05T07:45:37.377Z,99272.00
2023-03-05T07:46:37.508Z,99272.00
2023-03-05T07:47:37.380Z,99272.00
2023-03-05T07:48:37.415Z,99271.00
2023-03-05T07:49:37.632Z,99270.00
2023-03-05T07:50:37.427Z,99268.00
2023-03-05T07:51:37.464Z,99269.00
2023-03-05T07:52:37.525Z,99262.00
2023-03-05T07:53:37.534Z,99273.00
2023-03-05T07:54:37.591Z,99272.00
2023-03-05T07:55:37.520Z,99272.00
2023-03-05T07:56:37.545Z,99270.00
2023-03-05T07:57:37.533Z,99263.00
2023-03-05T07:58:37.538Z,99265.00
2023-03-05T07:59:37.521Z,99264.00
2023-03-05T08:00:37.544Z,99261.00
2023-03-05T08:01:37.575Z,99261.00
2023-03-05T08:02:37.639Z,99262.00
2023-03-05T08:03:37.615Z,99263.00
2023-03-05T08:04:37.637Z,99260.00
2023-03-05T08:05:37.658Z,99261.00
2023-03-05T08:06:37.692Z,99256.00
2023-03-05T08:07:37.727Z,99260.00
2023-03-05T08:08:37.756Z,99254.00
2023-03-05T08:09:37.765Z,99255.00
2023-03-05T08:10:37.742Z,99257.00
2023-03-05T08:11:37.731Z,99256.00
2023-03-05T08:12:37.765Z,99256.00
2023-03-05T08:13:37.765Z,99257.00
2023-03-05T08:14:37.791Z,99253.00
2023-03-05T08:15:37.878Z,99249.00
2023-03-05T08:16:37.808Z,99252.00
2023-03-05T08:17:37.789Z,99249.00
2023-03-05T08:18:37.785Z,99251.00
2023-03-05T08:19:37.767Z,99248.00
2023-03-05T08:20:37.795Z,99248.00
2023-03-05T08:21:37.818Z,99248.00
2023-03-05T08:22:37.839Z,99248.00
2023-03-05T08:23:37.871Z,99244.00
2023-03-05T08:24:37.902Z,99243.00
2023-03-05T08:25:37.948Z,99241.00
2023-03-05T08:26:37.922Z,99243.00
2023-03-05T08:27:37.943Z,99243.00
2023-03-05T08:28:37.928Z,99243.00
2023-03-05T08:29:37.928Z,99242.00
2023-03-05T08:30:37.914Z,99245.00
2023-03-05T08:31:38.063Z,99243.00
2023-03-05T08:32:38.258Z,99243.00
2023-03-05T08:33:37.972Z,99238.00
2023-03-05T08:34:37.995Z,99233.00
2023-03-05T08:35:38.070Z,99239.00
2023-03-05T08:36:38.033Z,99237.00
2023-03-05T08:37:38.066Z,99237.00
2023-03-05T08:38:38.115Z,99234.00
2023-03-05T08:39:38.109Z,99236.00
2023-03-05T08:40:38.100Z,99236.00
2023-03-05T08:41:38.147Z,99240.00
2023-03-05T08:42:38.140Z,99242.00
2023-03-05T08:43:38.136Z,99242.00
2023-03-05T08:44:38.157Z,99242.00
2023-03-05T08:45:38.146Z,99241.00
2023-03-05T08:46:38.195Z,99241.00
2023-03-05T08:47:38.200Z,99242.00
2023-03-05T08:48:38.216Z,99238.00
2023-03-05T08:49:38.236Z,99239.00
2023-03-05T08:50:39.025Z,99237.00
2023-03-05T08:51:38.240Z,99240.00
2023-03-05T08:52:38.280Z,99235.00
2023-03-05T08:53:38.296Z,99233.00
2023-03-05T08:54:38.318Z,99234.00
2023-03-05T08:55:38.312Z,99231.00
2023-03-05T08:56:38.337Z,99233.00
2023-03-05T08:57:38.390Z,99229.00
2023-03-05T08:58:38.387Z,99234.00
2023-03-05T08:59:38.371Z,99234.00
2023-03-05T09:00:38.395Z,99231.00
2023-03-05T09:01:38.440Z,99227.00
2023-03-05T09:02:38.426Z,99232.00
2023-03-05T09:03:38.396Z,99231.00
2023-03-05T09:04:38.655Z,99232.00
2023-03-05T09:05:39.216Z,99226.00
2023-03-05T09:06:38.444Z,99229.00
2023-03-05T09:07:38.496Z,99230.00
2023-03-05T09:08:38.483Z,99229.00
2023-03-05T09:09:38.509Z,99227.00
2023-03-05T09:10:38.549Z,99227.00
2023-03-05T09:11:38.564Z,99226.00
2023-03-05T09:12:38.598Z,99219.00
2023-03-05T09:13:38.643Z,99220.00
2023-03-05T09:14:38.628Z,99220.00
2023-03-05T09:15:38.616Z,99222.00
2023-03-05T09:16:38.683Z,99221.00
2023-03-05T09:17:38.618Z,99216.00
2023-03-05T09:18:38.640Z,99213.00
2023-03-05T09:19:38.668Z,99220.00
2023-03-05T09:20:38.703Z,99213.00
2023-03-05T09:21:38.722Z,99218.00
2023-03-05T09:22:38.764Z,99216.00
2023-03-05T09:23:38.786Z,99217.00
2023-03-05T09:24:38.809Z,99221.00
2023-03-05T09:25:38.834Z,99214.00
2023-03-05T09:26:38.871Z,99213.00
2023-03-05T09:27:38.854Z,99211.00
2023-03-05T09:28:38.844Z,99210.00
2023-03-05T09:29:40.369Z,99207.00
2023-03-05T09:30:38.883Z,99213.00
2023-03-05T09:31:39.058Z,99207.00
2023-03-05T09:32:38.924Z,99206.00
2023-03-05T09:33:38.914Z,99207.00
2023-03-05T09:34:38.942Z,99203.00
2023-03-05T09:35:38.997Z,99206.00
2023-03-05T09:36:38.973Z,99206.00
2023-03-05T09:37:38.997Z,99202.00
2023-03-05T09:38:39.031Z,99202.00
2023-03-05T09:39:39.009Z,99202.00
2023-03-05T09:40:38.996Z,99204.00
2023-03-05T09:41:39.039Z,99200.00
2023-03-05T09:42:39.060Z,99201.00
2023-03-05T09:43:39.103Z,99198.00
2023-03-05T09:44:39.118Z,99197.00
2023-03-05T09:45:39.229Z,99191.00
2023-03-05T09:46:39.238Z,99196.00
2023-03-05T09:47:39.175Z,99197.00
2023-03-05T09:48:39.197Z,99193.00
2023-03-05T09:49:39.200Z,99192.00
2023-03-05T09:50:39.176Z,99192.00
2023-03-05T09:51:39.210Z,99195.00
2023-03-05T09:52:39.246Z,99191.00
2023-03-05T09:53:39.230Z,99190.00
2023-03-05T09:54:39.253Z,99193.00
2023-03-05T09:55:39.242Z,99194.00
2023-03-05T09:56:39.278Z,99191.00
2023-03-05T09:57:39.307Z,99193.00
2023-03-05T09:58:39.328Z,99190.00
2023-03-05T09:59:39.309Z,99191.00
2023-03-05T10:00:39.358Z,99191.00
2023-03-05T10:01:39.369Z,99191.00
2023-03-05T10:02:39.403Z,99189.00
2023-03-05T10:03:39.412Z,99186.00
2023-03-05T10:04:39.362Z,99188.00
2023-03-05T10:05:39.398Z,99187.00
2023-03-05T10:06:39.419Z,99183.00
2023-03-05T10:07:39.421Z,99187.00
2023-03-05T10:08:39.405Z,99185.00
2023-03-05T10:09:39.449Z,99184.00
2023-03-05T10:10:39.476Z,99183.00
2023-03-05T10:11:39.463Z,99176.00
2023-03-05T10:12:39.497Z,99181.00
2023-03-05T10:13:39.484Z,99183.00
2023-03-05T10:14:39.510Z,99182.00
2023-03-05T10:15:39.548Z,99182.00
2023-03-05T10:16:39.606Z,99182.00
2023-03-05T10:17:39.578Z,99178.00
2023-03-05T10:18:39.515Z,99180.00
2023-03-05T10:19:39.552Z,99177.00
2023-03-05T10:20:39.568Z,99178.00
2023-03-05T10:21:40.326Z,99178.00
2023-03-05T10:22:39.558Z,99175.00
2023-03-05T10:23:39.546Z,99180.00
2023-03-05T10:24:39.567Z,99176.00
2023-03-05T10:25:39.613Z,99177.00
2023-03-05T10:26:39.636Z,99176.00
2023-03-05T10:27:39.684Z,99176.00
2023-03-05T10:28:39.660Z,99174.00
2023-03-05T10:29:39.658Z,99178.00
2023-03-05T10:30:39.694Z,99176.00
2023-03-05T10:31:39.760Z,99177.00
2023-03-05T10:32:39.792Z,99179.00
2023-03-05T10:33:39.821Z,99175.00
2023-03-05T10:34:39.801Z,99174.00
2023-03-05T10:35:39.889Z,99174.00
2023-03-05T10:36:39.846Z,99171.00
2023-03-05T10:37:39.897Z,99172.00
2023-03-05T10:38:39.885Z,99170.00
2023-03-05T10:39:39.865Z,99169.00
2023-03-05T10:40:39.864Z,99167.00
2023-03-05T10:41:39.893Z,99169.00
2023-03-05T10:42:39.881Z,99168.00
2023-03-05T10:43:39.903Z,99168.00
2023-03-05T10:44:39.922Z,99164.00
2023-03-05T10:45:39.997Z,99162.00
2023-03-05T10:46:39.974Z,99162.00
2023-03-05T10:47:40.027Z,99162.00
2023-03-05T10:48:40.021Z,99160.00
2023-03-05T10:49:40.070Z,99162.00
2023-03-05T10:50:40.046Z,99162.00
2023-03-05T10:51:40.031Z,99155.00
2023-03-05T10:52:40.073Z,99155.00
2023-03-05T10:53:40.058Z,99155.00
2023-03-05T10:54:40.036Z,99156.00
2023-03-05T10:55:40.062Z,99155.00
2023-03-05T10:56:40.086Z,99154.00
2023-03-05T10:57:40.118Z,99150.00
2023-03-05T10:58:40.142Z,99150.00
2023-03-05T10:59:40.165Z,99151.00
2023-03-05T11:00:40.203Z,99148.00
2023-03-05T11:01:40.273Z,99147.00
2023-03-05T11:02:40.270Z,99143.00
2023-03-05T11:03:40.208Z,99144.00
2023-03-05T11:04:40.229Z,99145.00
2023-03-05T11:05:40.308Z,99142.00
2023-03-05T11:06:40.293Z,99137.00
2023-03-05T11:07:40.324Z,99140.00
2023-03-05T11:08:40.315Z,99140.00
2023-03-05T11:09:40.337Z,99136.00
2023-03-05T11:10:40.366Z,99133.00
2023-03-05T11:11:40.368Z,99131.00
2023-03-05T11:12:40.373Z,99132.00
2023-03-05T11:13:40.362Z,99129.00
2023-03-05T11:14:40.398Z,99131.00
2023-03-05T11:15:40.468Z,99131.00
2023-03-05T11:16:40.408Z,99125.00
2023-03-05T11:17:40.404Z,99125.00
2023-03-05T11:18:40.394Z,99126.00
2023-03-05T11:19:40.432Z,99126.00
2023-03-05T11:20:40.462Z,99122.00
2023-03-05T11:21:40.517Z,99123.00
2023-03-05T11:22:40.511Z,99120.00
2023-03-05T11:23:40.503Z,99120.00
2023-03-05T11:24:40.524Z,99122.00
2023-03-05T11:25:40.558Z,99119.00
2023-03-05T11:26:40.544Z,99118.00
2023-03-05T11:27:40.568Z,99117.00
2023-03-05T11:28:40.603Z,99114.00
2023-03-05T11:29:40.626Z,99117.00
2023-03-05T11:30:40.744Z,99108.00
2023-03-05T11:31:40.685Z,99110.00
2023-03-05T11:32:40.702Z,99113.00
2023-03-05T11:33:40.676Z,99109.00
2023-03-05T11:34:40.712Z,99112.00
2023-03-05T11:35:40.780Z,99115.00
2023-03-05T11:36:40.723Z,99111.00
2023-03-05T11:37:40.772Z,99110.00
2023-03-05T11:38:40.764Z,99114.00
2023-03-05T11:39:40.770Z,99107.00
2023-03-05T11:40:40.749Z,99107.00
2023-03-05T11:41:40.788Z,99105.00
2023-03-05T11:42:40.772Z,99103.00
2023-03-05T11:43:40.760Z,99103.00
2023-03-05T11:44:40.795Z,99099.00